sensor_id;sensor_type;location;lat;lon;timestamp;temperature;humidity
8539;DHT22;4307;53.868;11.680;2022-07-01T00:01:48;19.90;99.90
8539;DHT22;4307;53.868;11.680;2022-07-01T00:04:15;19.90;99.90
8539;DHT22;4307;53.868;11.680;2022-07-01T00:06:42;19.90;99.90
8539;DHT22;4307;53.868;11.680;2022-07-01T00:09:08;19.90;99.90
8539;DHT22;4307;53.868;11.680;2022-07-01T00:11:35;19.90;99.90
8539;DHT22;4307;53.868;11.680;2022-07-01T00:14:02;19.90;99.90
8539;DHT22;4307;53.868;11.680;2022-07-01T00:16:28;19.90;99.90
8539;DHT22;4307;53.868;11.680;2022-07-01T00:18:57;19.90;99.90
8539;DHT22;4307;53.868;11.680;2022-07-01T00:21:23;19.90;99.90
8539;DHT22;4307;53.868;11.680;2022-07-01T00:23:50;19.90;99.90
8539;DHT22;4307;53.868;11.680;2022-07-01T00:26:16;19.90;99.90
8539;DHT22;4307;53.868;11.680;2022-07-01T00:28:43;19.90;99.90
8539;DHT22;4307;53.868;11.680;2022-07-01T00:31:10;19.90;99.90
8539;DHT22;4307;53.868;11.680;2022-07-01T00:33:37;19.90;99.90
8539;DHT22;4307;53.868;11.680;2022-07-01T00:36:05;19.90;99.90
8539;DHT22;4307;53.868;11.680;2022-07-01T00:38:31;19.90;99.90
8539;DHT22;4307;53.868;11.680;2022-07-01T00:40:58;19.90;99.90
8539;DHT22;4307;53.868;11.680;2022-07-01T00:43:25;19.90;99.90
8539;DHT22;4307;53.868;11.680;2022-07-01T00:45:52;19.90;99.90
8539;DHT22;4307;53.868;11.680;2022-07-01T00:48:20;19.90;99.90
8539;DHT22;4307;53.868;11.680;2022-07-01T00:50:47;19.80;99.90
8539;DHT22;4307;53.868;11.680;2022-07-01T00:53:16;19.80;99.90
8539;DHT22;4307;53.868;11.680;2022-07-01T00:55:42;19.80;99.90
8539;DHT22;4307;53.868;11.680;2022-07-01T00:58:09;19.70;99.90
8539;DHT22;4307;53.868;11.680;2022-07-01T01:00:37;19.70;99.90
8539;DHT22;4307;53.868;11.680;2022-07-01T01:03:05;19.70;99.90
8539;DHT22;4307;53.868;11.680;2022-07-01T01:05:32;19.70;99.90
8539;DHT22;4307;53.868;11.680;2022-07-01T01:07:59;19.70;99.90
8539;DHT22;4307;53.868;11.680;2022-07-01T01:10:27;19.70;99.90
8539;DHT22;4307;53.868;11.680;2022-07-01T01:12:55;19.70;99.90
8539;DHT22;4307;53.868;11.680;2022-07-01T01:15:22;19.60;99.90
8539;DHT22;4307;53.868;11.680;2022-07-01T01:17:49;19.60;99.90
8539;DHT22;4307;53.868;11.680;2022-07-01T01:20:18;19.60;99.90
8539;DHT22;4307;53.868;11.680;2022-07-01T01:22:47;19.50;99.90
8539;DHT22;4307;53.868;11.680;2022-07-01T01:25:14;19.50;99.90
8539;DHT22;4307;53.868;11.680;2022-07-01T01:27:41;19.40;99.90
8539;DHT22;4307;53.868;11.680;2022-07-01T01:30:10;19.40;99.90
8539;DHT22;4307;53.868;11.680;2022-07-01T01:32:37;19.40;99.90
8539;DHT22;4307;53.868;11.680;2022-07-01T01:35:04;19.40;99.90
8539;DHT22;4307;53.868;11.680;2022-07-01T01:37:31;19.40;99.90
8539;DHT22;4307;53.868;11.680;2022-07-01T01:39:59;19.40;99.90
8539;DHT22;4307;53.868;11.680;2022-07-01T01:42:26;19.40;99.90
8539;DHT22;4307;53.868;11.680;2022-07-01T01:44:52;19.40;99.90
8539;DHT22;4307;53.868;11.680;2022-07-01T01:47:20;19.40;99.90
8539;DHT22;4307;53.868;11.680;2022-07-01T01:49:46;19.40;99.90
8539;DHT22;4307;53.868;11.680;2022-07-01T01:52:13;19.40;99.90
8539;DHT22;4307;53.868;11.680;2022-07-01T01:54:39;19.30;99.90
8539;DHT22;4307;53.868;11.680;2022-07-01T01:57:07;19.30;99.90
8539;DHT22;4307;53.868;11.680;2022-07-01T01:59:34;19.30;99.90
8539;DHT22;4307;53.868;11.680;2022-07-01T02:02:01;19.30;99.90
8539;DHT22;4307;53.868;11.680;2022-07-01T02:04:28;19.30;99.90
8539;DHT22;4307;53.868;11.680;2022-07-01T02:06:54;19.30;99.90
8539;DHT22;4307;53.868;11.680;2022-07-01T02:09:21;19.30;99.90
8539;DHT22;4307;53.868;11.680;2022-07-01T02:11:48;19.30;99.90
8539;DHT22;4307;53.868;11.680;2022-07-01T02:14:16;19.40;99.90
8539;DHT22;4307;53.868;11.680;2022-07-01T02:16:42;19.40;99.90
8539;DHT22;4307;53.868;11.680;2022-07-01T02:19:09;19.40;99.90
8539;DHT22;4307;53.868;11.680;2022-07-01T02:21:36;19.40;99.90
8539;DHT22;4307;53.868;11.680;2022-07-01T02:24:02;19.40;99.90
8539;DHT22;4307;53.868;11.680;2022-07-01T02:26:29;19.40;99.90
8539;DHT22;4307;53.868;11.680;2022-07-01T02:28:56;19.50;99.90
8539;DHT22;4307;53.868;11.680;2022-07-01T02:31:24;19.40;99.90
8539;DHT22;4307;53.868;11.680;2022-07-01T02:33:50;19.40;99.90
8539;DHT22;4307;53.868;11.680;2022-07-01T02:36:17;19.40;99.90
8539;DHT22;4307;53.868;11.680;2022-07-01T02:38:44;19.40;99.90
8539;DHT22;4307;53.868;11.680;2022-07-01T02:41:10;19.50;99.90
8539;DHT22;4307;53.868;11.680;2022-07-01T02:43:37;19.50;99.90
8539;DHT22;4307;53.868;11.680;2022-07-01T02:46:04;19.50;99.90
8539;DHT22;4307;53.868;11.680;2022-07-01T02:48:32;19.50;99.90
8539;DHT22;4307;53.868;11.680;2022-07-01T02:50:59;19.60;99.90
8539;DHT22;4307;53.868;11.680;2022-07-01T02:53:25;19.60;99.90
8539;DHT22;4307;53.868;11.680;2022-07-01T02:55:52;19.60;99.90
8539;DHT22;4307;53.868;11.680;2022-07-01T02:58:19;19.60;99.90
8539;DHT22;4307;53.868;11.680;2022-07-01T03:00:45;19.70;99.90
8539;DHT22;4307;53.868;11.680;2022-07-01T03:03:14;19.70;99.90
8539;DHT22;4307;53.868;11.680;2022-07-01T03:05:42;19.80;99.90
8539;DHT22;4307;53.868;11.680;2022-07-01T03:08:08;19.80;99.90
8539;DHT22;4307;53.868;11.680;2022-07-01T03:10:35;19.80;99.90
8539;DHT22;4307;53.868;11.680;2022-07-01T03:13:02;19.90;99.90
8539;DHT22;4307;53.868;11.680;2022-07-01T03:15:29;19.90;99.90
8539;DHT22;4307;53.868;11.680;2022-07-01T03:17:55;19.90;99.90
8539;DHT22;4307;53.868;11.680;2022-07-01T03:20:22;20.00;99.90
8539;DHT22;4307;53.868;11.680;2022-07-01T03:22:50;20.00;99.90
8539;DHT22;4307;53.868;11.680;2022-07-01T03:25:17;20.00;99.90
8539;DHT22;4307;53.868;11.680;2022-07-01T03:27:44;20.00;99.90
8539;DHT22;4307;53.868;11.680;2022-07-01T03:30:13;20.10;99.90
8539;DHT22;4307;53.868;11.680;2022-07-01T03:32:40;20.10;99.90
8539;DHT22;4307;53.868;11.680;2022-07-01T03:35:08;20.20;99.90
8539;DHT22;4307;53.868;11.680;2022-07-01T03:37:50;20.20;99.90
8539;DHT22;4307;53.868;11.680;2022-07-01T03:40:17;20.20;99.90
8539;DHT22;4307;53.868;11.680;2022-07-01T03:42:43;20.20;99.90
8539;DHT22;4307;53.868;11.680;2022-07-01T03:45:10;20.30;99.90
8539;DHT22;4307;53.868;11.680;2022-07-01T03:47:37;20.30;99.90
8539;DHT22;4307;53.868;11.680;2022-07-01T03:50:05;20.30;99.90
8539;DHT22;4307;53.868;11.680;2022-07-01T03:52:31;20.30;99.90
8539;DHT22;4307;53.868;11.680;2022-07-01T03:55:00;20.30;99.90
8539;DHT22;4307;53.868;11.680;2022-07-01T03:57:25;20.40;99.90
8539;DHT22;4307;53.868;11.680;2022-07-01T03:59:52;20.40;99.90
8539;DHT22;4307;53.868;11.680;2022-07-01T04:02:19;20.40;99.90
8539;DHT22;4307;53.868;11.680;2022-07-01T04:04:45;20.40;99.90
8539;DHT22;4307;53.868;11.680;2022-07-01T04:07:12;20.40;99.90
8539;DHT22;4307;53.868;11.680;2022-07-01T04:09:39;20.40;99.90
8539;DHT22;4307;53.868;11.680;2022-07-01T04:12:09;20.30;99.90
8539;DHT22;4307;53.868;11.680;2022-07-01T04:14:38;20.30;99.90
8539;DHT22;4307;53.868;11.680;2022-07-01T04:17:05;20.30;99.90
8539;DHT22;4307;53.868;11.680;2022-07-01T04:19:31;20.40;99.90
8539;DHT22;4307;53.868;11.680;2022-07-01T04:21:58;20.40;99.90
8539;DHT22;4307;53.868;11.680;2022-07-01T04:24:42;20.40;99.90
8539;DHT22;4307;53.868;11.680;2022-07-01T04:27:10;20.50;99.90
8539;DHT22;4307;53.868;11.680;2022-07-01T04:29:37;20.60;99.90
8539;DHT22;4307;53.868;11.680;2022-07-01T04:32:06;20.60;99.90
8539;DHT22;4307;53.868;11.680;2022-07-01T04:34:32;20.70;99.90
8539;DHT22;4307;53.868;11.680;2022-07-01T04:36:59;20.80;99.90
8539;DHT22;4307;53.868;11.680;2022-07-01T04:39:26;20.90;99.90
8539;DHT22;4307;53.868;11.680;2022-07-01T04:41:52;20.90;99.90
8539;DHT22;4307;53.868;11.680;2022-07-01T04:44:27;21.00;99.90
8539;DHT22;4307;53.868;11.680;2022-07-01T04:46:54;21.20;99.90
8539;DHT22;4307;53.868;11.680;2022-07-01T04:49:21;21.40;99.90
8539;DHT22;4307;53.868;11.680;2022-07-01T04:51:47;21.60;99.90
8539;DHT22;4307;53.868;11.680;2022-07-01T04:54:14;21.70;99.90
8539;DHT22;4307;53.868;11.680;2022-07-01T04:56:41;21.80;99.90
8539;DHT22;4307;53.868;11.680;2022-07-01T04:59:08;21.80;99.90
8539;DHT22;4307;53.868;11.680;2022-07-01T05:01:36;21.90;99.90
8539;DHT22;4307;53.868;11.680;2022-07-01T05:04:03;21.90;99.90
8539;DHT22;4307;53.868;11.680;2022-07-01T05:06:29;21.90;99.90
8539;DHT22;4307;53.868;11.680;2022-07-01T05:08:56;21.90;99.90
8539;DHT22;4307;53.868;11.680;2022-07-01T05:11:23;21.80;99.90
8539;DHT22;4307;53.868;11.680;2022-07-01T05:13:49;21.80;99.90
8539;DHT22;4307;53.868;11.680;2022-07-01T05:16:16;21.70;99.90
8539;DHT22;4307;53.868;11.680;2022-07-01T05:18:44;21.70;99.90
8539;DHT22;4307;53.868;11.680;2022-07-01T05:21:29;21.70;99.90
8539;DHT22;4307;53.868;11.680;2022-07-01T05:24:13;21.60;99.90
8539;DHT22;4307;53.868;11.680;2022-07-01T05:26:40;21.50;99.90
8539;DHT22;4307;53.868;11.680;2022-07-01T05:29:06;21.50;99.90
8539;DHT22;4307;53.868;11.680;2022-07-01T05:31:33;21.40;99.90
8539;DHT22;4307;53.868;11.680;2022-07-01T05:34:02;21.40;99.90
8539;DHT22;4307;53.868;11.680;2022-07-01T05:36:28;21.40;99.90
8539;DHT22;4307;53.868;11.680;2022-07-01T05:38:55;21.40;99.90
8539;DHT22;4307;53.868;11.680;2022-07-01T05:41:22;21.30;99.90
8539;DHT22;4307;53.868;11.680;2022-07-01T05:43:48;21.30;99.90
8539;DHT22;4307;53.868;11.680;2022-07-01T05:46:15;21.20;99.90
8539;DHT22;4307;53.868;11.680;2022-07-01T05:48:42;21.20;99.90
8539;DHT22;4307;53.868;11.680;2022-07-01T05:51:10;21.30;99.90
8539;DHT22;4307;53.868;11.680;2022-07-01T05:53:37;21.40;99.90
8539;DHT22;4307;53.868;11.680;2022-07-01T05:56:04;21.40;99.90
8539;DHT22;4307;53.868;11.680;2022-07-01T05:58:31;21.50;99.90
8539;DHT22;4307;53.868;11.680;2022-07-01T06:00:58;21.60;99.90
8539;DHT22;4307;53.868;11.680;2022-07-01T06:03:24;21.60;99.90
8539;DHT22;4307;53.868;11.680;2022-07-01T06:05:51;21.60;99.90
8539;DHT22;4307;53.868;11.680;2022-07-01T06:08:19;21.70;99.90
8539;DHT22;4307;53.868;11.680;2022-07-01T06:10:45;21.90;99.90
8539;DHT22;4307;53.868;11.680;2022-07-01T06:13:12;21.90;99.90
8539;DHT22;4307;53.868;11.680;2022-07-01T06:15:40;22.00;99.90
8539;DHT22;4307;53.868;11.680;2022-07-01T06:18:06;22.00;99.90
8539;DHT22;4307;53.868;11.680;2022-07-01T06:20:33;22.10;99.90
8539;DHT22;4307;53.868;11.680;2022-07-01T06:23:00;22.10;99.90
8539;DHT22;4307;53.868;11.680;2022-07-01T06:25:28;22.00;99.90
8539;DHT22;4307;53.868;11.680;2022-07-01T06:27:54;22.00;99.90
8539;DHT22;4307;53.868;11.680;2022-07-01T06:30:21;22.00;99.90
8539;DHT22;4307;53.868;11.680;2022-07-01T06:32:47;22.00;99.90
8539;DHT22;4307;53.868;11.680;2022-07-01T06:35:14;22.00;99.90
8539;DHT22;4307;53.868;11.680;2022-07-01T06:37:41;22.00;99.90
8539;DHT22;4307;53.868;11.680;2022-07-01T06:40:08;22.00;99.90
8539;DHT22;4307;53.868;11.680;2022-07-01T06:42:36;21.90;99.90
8539;DHT22;4307;53.868;11.680;2022-07-01T06:45:03;21.60;99.90
8539;DHT22;4307;53.868;11.680;2022-07-01T06:47:30;21.20;99.90
8539;DHT22;4307;53.868;11.680;2022-07-01T06:49:57;20.80;99.90
8539;DHT22;4307;53.868;11.680;2022-07-01T06:52:23;20.40;99.90
8539;DHT22;4307;53.868;11.680;2022-07-01T06:54:50;20.20;99.90
8539;DHT22;4307;53.868;11.680;2022-07-01T06:57:17;20.00;99.90
8539;DHT22;4307;53.868;11.680;2022-07-01T06:59:45;19.90;99.90
8539;DHT22;4307;53.868;11.680;2022-07-01T07:02:11;19.80;99.90
8539;DHT22;4307;53.868;11.680;2022-07-01T07:04:38;19.80;99.90
8539;DHT22;4307;53.868;11.680;2022-07-01T07:07:05;19.70;99.90
8539;DHT22;4307;53.868;11.680;2022-07-01T07:09:31;19.70;99.90
8539;DHT22;4307;53.868;11.680;2022-07-01T07:11:58;19.60;99.90
8539;DHT22;4307;53.868;11.680;2022-07-01T07:14:25;19.60;99.90
8539;DHT22;4307;53.868;11.680;2022-07-01T07:16:53;19.60;99.90
8539;DHT22;4307;53.868;11.680;2022-07-01T07:19:20;19.70;99.90
8539;DHT22;4307;53.868;11.680;2022-07-01T07:21:47;19.70;99.90
8539;DHT22;4307;53.868;11.680;2022-07-01T07:24:14;19.80;99.90
8539;DHT22;4307;53.868;11.680;2022-07-01T07:26:40;19.80;99.90
8539;DHT22;4307;53.868;11.680;2022-07-01T07:29:07;19.90;99.90
8539;DHT22;4307;53.868;11.680;2022-07-01T07:31:34;20.10;99.90
8539;DHT22;4307;53.868;11.680;2022-07-01T07:34:02;20.30;99.90
8539;DHT22;4307;53.868;11.680;2022-07-01T07:36:28;20.30;99.90
8539;DHT22;4307;53.868;11.680;2022-07-01T07:38:55;20.40;99.90
8539;DHT22;4307;53.868;11.680;2022-07-01T07:41:21;20.50;99.90
8539;DHT22;4307;53.868;11.680;2022-07-01T07:43:48;20.50;99.90
8539;DHT22;4307;53.868;11.680;2022-07-01T07:46:15;20.60;99.90
8539;DHT22;4307;53.868;11.680;2022-07-01T07:48:42;20.80;99.90
8539;DHT22;4307;53.868;11.680;2022-07-01T07:51:10;20.90;99.90
8539;DHT22;4307;53.868;11.680;2022-07-01T07:53:41;20.90;99.90
8539;DHT22;4307;53.868;11.680;2022-07-01T07:56:07;20.90;99.90
8539;DHT22;4307;53.868;11.680;2022-07-01T07:58:34;20.90;99.90
8539;DHT22;4307;53.868;11.680;2022-07-01T08:01:01;21.00;99.90
8539;DHT22;4307;53.868;11.680;2022-07-01T08:03:27;20.90;99.90
8539;DHT22;4307;53.868;11.680;2022-07-01T08:05:54;20.80;99.90
8539;DHT22;4307;53.868;11.680;2022-07-01T08:08:22;20.90;99.90
8539;DHT22;4307;53.868;11.680;2022-07-01T08:10:49;20.90;99.90
8539;DHT22;4307;53.868;11.680;2022-07-01T08:13:15;21.00;99.90
8539;DHT22;4307;53.868;11.680;2022-07-01T08:15:42;20.90;99.90
8539;DHT22;4307;53.868;11.680;2022-07-01T08:18:09;21.00;99.90
8539;DHT22;4307;53.868;11.680;2022-07-01T08:20:35;21.00;99.90
8539;DHT22;4307;53.868;11.680;2022-07-01T08:23:02;20.90;99.90
8539;DHT22;4307;53.868;11.680;2022-07-01T08:25:30;20.80;99.90
8539;DHT22;4307;53.868;11.680;2022-07-01T08:27:57;20.80;99.90
8539;DHT22;4307;53.868;11.680;2022-07-01T08:30:23;20.70;99.90
8539;DHT22;4307;53.868;11.680;2022-07-01T08:32:50;20.60;99.90
8539;DHT22;4307;53.868;11.680;2022-07-01T08:35:17;20.50;99.90
8539;DHT22;4307;53.868;11.680;2022-07-01T08:37:43;20.40;99.90
8539;DHT22;4307;53.868;11.680;2022-07-01T08:40:10;20.40;99.90
8539;DHT22;4307;53.868;11.680;2022-07-01T08:42:38;20.40;99.90
8539;DHT22;4307;53.868;11.680;2022-07-01T08:45:06;20.40;99.90
8539;DHT22;4307;53.868;11.680;2022-07-01T08:47:33;20.50;99.90
8539;DHT22;4307;53.868;11.680;2022-07-01T08:50:00;20.50;99.90
8539;DHT22;4307;53.868;11.680;2022-07-01T08:52:28;20.70;99.90
8539;DHT22;4307;53.868;11.680;2022-07-01T08:54:55;20.80;99.90
8539;DHT22;4307;53.868;11.680;2022-07-01T08:57:23;20.90;99.90
8539;DHT22;4307;53.868;11.680;2022-07-01T09:00:03;20.80;99.90
8539;DHT22;4307;53.868;11.680;2022-07-01T09:02:51;20.70;99.90
8539;DHT22;4307;53.868;11.680;2022-07-01T09:05:18;20.70;99.90
8539;DHT22;4307;53.868;11.680;2022-07-01T09:07:46;20.70;99.90
8539;DHT22;4307;53.868;11.680;2022-07-01T09:10:14;20.80;99.90
8539;DHT22;4307;53.868;11.680;2022-07-01T09:12:43;20.80;99.90
8539;DHT22;4307;53.868;11.680;2022-07-01T09:15:22;20.80;99.90
8539;DHT22;4307;53.868;11.680;2022-07-01T09:17:51;20.80;99.90
8539;DHT22;4307;53.868;11.680;2022-07-01T09:20:27;20.80;99.90
8539;DHT22;4307;53.868;11.680;2022-07-01T09:23:05;20.80;99.90
8539;DHT22;4307;53.868;11.680;2022-07-01T09:25:34;20.80;99.90
8539;DHT22;4307;53.868;11.680;2022-07-01T09:28:13;20.70;99.90
8539;DHT22;4307;53.868;11.680;2022-07-01T09:30:42;20.70;99.90
8539;DHT22;4307;53.868;11.680;2022-07-01T09:33:11;20.70;99.90
8539;DHT22;4307;53.868;11.680;2022-07-01T09:35:39;20.60;99.90
8539;DHT22;4307;53.868;11.680;2022-07-01T09:38:07;20.70;99.90
8539;DHT22;4307;53.868;11.680;2022-07-01T09:40:46;20.60;99.90
8539;DHT22;4307;53.868;11.680;2022-07-01T09:43:17;20.60;99.90
8539;DHT22;4307;53.868;11.680;2022-07-01T09:45:55;20.50;99.90
8539;DHT22;4307;53.868;11.680;2022-07-01T09:48:24;20.40;99.90
8539;DHT22;4307;53.868;11.680;2022-07-01T09:50:52;20.40;99.90
8539;DHT22;4307;53.868;11.680;2022-07-01T09:53:19;20.30;99.90
8539;DHT22;4307;53.868;11.680;2022-07-01T09:55:46;20.30;99.90
8539;DHT22;4307;53.868;11.680;2022-07-01T09:58:13;20.30;99.90
8539;DHT22;4307;53.868;11.680;2022-07-01T10:00:41;20.30;99.90
8539;DHT22;4307;53.868;11.680;2022-07-01T10:03:10;20.30;99.90
8539;DHT22;4307;53.868;11.680;2022-07-01T10:05:41;20.20;99.90
8539;DHT22;4307;53.868;11.680;2022-07-01T10:08:41;20.10;99.90
8539;DHT22;4307;53.868;11.680;2022-07-01T10:11:30;20.00;99.90
8539;DHT22;4307;53.868;11.680;2022-07-01T10:14:04;19.80;99.90
8539;DHT22;4307;53.868;11.680;2022-07-01T10:16:31;19.70;99.90
8539;DHT22;4307;53.868;11.680;2022-07-01T10:19:06;19.60;99.90
8539;DHT22;4307;53.868;11.680;2022-07-01T10:21:51;19.50;99.90
8539;DHT22;4307;53.868;11.680;2022-07-01T10:24:20;19.40;99.90
8539;DHT22;4307;53.868;11.680;2022-07-01T10:26:47;19.30;99.90
8539;DHT22;4307;53.868;11.680;2022-07-01T10:29:29;19.30;99.90
8539;DHT22;4307;53.868;11.680;2022-07-01T10:32:01;19.30;99.90
8539;DHT22;4307;53.868;11.680;2022-07-01T10:34:37;19.20;99.90
8539;DHT22;4307;53.868;11.680;2022-07-01T10:37:06;19.20;99.90
8539;DHT22;4307;53.868;11.680;2022-07-01T10:39:57;19.20;99.90
8539;DHT22;4307;53.868;11.680;2022-07-01T10:42:28;19.20;99.90
8539;DHT22;4307;53.868;11.680;2022-07-01T10:45:07;19.20;99.90
8539;DHT22;4307;53.868;11.680;2022-07-01T10:47:34;19.20;99.90
8539;DHT22;4307;53.868;11.680;2022-07-01T10:50:12;19.20;99.90
8539;DHT22;4307;53.868;11.680;2022-07-01T10:52:59;19.20;99.90
8539;DHT22;4307;53.868;11.680;2022-07-01T10:55:36;19.20;99.90
8539;DHT22;4307;53.868;11.680;2022-07-01T10:58:03;19.20;99.90
8539;DHT22;4307;53.868;11.680;2022-07-01T11:00:32;19.20;99.90
8539;DHT22;4307;53.868;11.680;2022-07-01T11:03:19;19.20;99.90
8539;DHT22;4307;53.868;11.680;2022-07-01T11:05:52;19.20;99.90
8539;DHT22;4307;53.868;11.680;2022-07-01T11:08:20;19.20;99.90
8539;DHT22;4307;53.868;11.680;2022-07-01T11:10:51;19.30;99.90
8539;DHT22;4307;53.868;11.680;2022-07-01T11:13:19;19.30;99.90
8539;DHT22;4307;53.868;11.680;2022-07-01T11:15:46;19.30;99.90
8539;DHT22;4307;53.868;11.680;2022-07-01T11:18:15;19.20;99.90
8539;DHT22;4307;53.868;11.680;2022-07-01T11:20:42;19.20;99.90
8539;DHT22;4307;53.868;11.680;2022-07-01T11:23:10;19.20;99.90
8539;DHT22;4307;53.868;11.680;2022-07-01T11:25:37;19.10;99.90
8539;DHT22;4307;53.868;11.680;2022-07-01T11:28:04;19.10;99.90
8539;DHT22;4307;53.868;11.680;2022-07-01T11:30:31;19.10;99.90
8539;DHT22;4307;53.868;11.680;2022-07-01T11:32:58;19.10;99.90
8539;DHT22;4307;53.868;11.680;2022-07-01T11:35:26;19.10;99.90
8539;DHT22;4307;53.868;11.680;2022-07-01T11:38:16;19.00;99.90
8539;DHT22;4307;53.868;11.680;2022-07-01T11:41:03;19.00;99.90
8539;DHT22;4307;53.868;11.680;2022-07-01T11:43:31;19.00;99.90
8539;DHT22;4307;53.868;11.680;2022-07-01T11:46:00;19.00;99.90
8539;DHT22;4307;53.868;11.680;2022-07-01T11:48:29;19.00;99.90
8539;DHT22;4307;53.868;11.680;2022-07-01T11:50:56;18.90;99.90
8539;DHT22;4307;53.868;11.680;2022-07-01T11:53:25;18.80;99.90
8539;DHT22;4307;53.868;11.680;2022-07-01T11:55:52;18.80;99.90
8539;DHT22;4307;53.868;11.680;2022-07-01T11:58:18;18.80;99.90
8539;DHT22;4307;53.868;11.680;2022-07-01T12:00:45;18.70;99.90
8539;DHT22;4307;53.868;11.680;2022-07-01T12:03:11;18.70;99.90
8539;DHT22;4307;53.868;11.680;2022-07-01T12:05:38;18.50;99.90
8539;DHT22;4307;53.868;11.680;2022-07-01T12:08:06;18.50;99.90
8539;DHT22;4307;53.868;11.680;2022-07-01T12:10:34;18.50;99.90
8539;DHT22;4307;53.868;11.680;2022-07-01T12:13:20;18.40;99.90
8539;DHT22;4307;53.868;11.680;2022-07-01T12:15:47;18.40;99.90
8539;DHT22;4307;53.868;11.680;2022-07-01T12:18:15;18.30;99.90
8539;DHT22;4307;53.868;11.680;2022-07-01T12:20:48;18.30;99.90
8539;DHT22;4307;53.868;11.680;2022-07-01T12:23:14;18.30;99.90
8539;DHT22;4307;53.868;11.680;2022-07-01T12:25:48;18.30;99.90
8539;DHT22;4307;53.868;11.680;2022-07-01T12:28:29;18.20;99.90
8539;DHT22;4307;53.868;11.680;2022-07-01T12:31:03;18.20;99.90
8539;DHT22;4307;53.868;11.680;2022-07-01T12:33:32;18.20;99.90
8539;DHT22;4307;53.868;11.680;2022-07-01T12:36:01;18.20;99.90
8539;DHT22;4307;53.868;11.680;2022-07-01T12:38:27;18.20;99.90
8539;DHT22;4307;53.868;11.680;2022-07-01T12:40:55;18.20;99.90
8539;DHT22;4307;53.868;11.680;2022-07-01T12:43:27;18.20;99.90
8539;DHT22;4307;53.868;11.680;2022-07-01T12:45:56;18.20;99.90
8539;DHT22;4307;53.868;11.680;2022-07-01T12:48:23;18.20;99.90
8539;DHT22;4307;53.868;11.680;2022-07-01T12:50:52;18.10;99.90
8539;DHT22;4307;53.868;11.680;2022-07-01T12:53:21;18.00;99.90
8539;DHT22;4307;53.868;11.680;2022-07-01T12:55:50;17.90;99.90
8539;DHT22;4307;53.868;11.680;2022-07-01T12:58:20;17.80;99.90
8539;DHT22;4307;53.868;11.680;2022-07-01T13:00:49;17.70;99.90
8539;DHT22;4307;53.868;11.680;2022-07-01T13:03:19;17.70;99.90
8539;DHT22;4307;53.868;11.680;2022-07-01T13:05:48;17.70;99.90
8539;DHT22;4307;53.868;11.680;2022-07-01T13:08:16;17.70;99.90
8539;DHT22;4307;53.868;11.680;2022-07-01T13:10:44;17.80;99.90
8539;DHT22;4307;53.868;11.680;2022-07-01T13:13:11;17.80;99.90
8539;DHT22;4307;53.868;11.680;2022-07-01T13:15:39;17.80;99.90
8539;DHT22;4307;53.868;11.680;2022-07-01T13:18:06;17.90;99.90
8539;DHT22;4307;53.868;11.680;2022-07-01T13:20:33;17.90;99.90
8539;DHT22;4307;53.868;11.680;2022-07-01T13:22:59;17.90;99.90
8539;DHT22;4307;53.868;11.680;2022-07-01T13:25:26;18.00;99.90
8539;DHT22;4307;53.868;11.680;2022-07-01T13:27:53;18.00;99.90
8539;DHT22;4307;53.868;11.680;2022-07-01T13:30:20;18.10;99.90
8539;DHT22;4307;53.868;11.680;2022-07-01T13:32:48;18.10;99.90
8539;DHT22;4307;53.868;11.680;2022-07-01T13:35:18;18.10;99.90
8539;DHT22;4307;53.868;11.680;2022-07-01T13:37:44;18.10;99.90
8539;DHT22;4307;53.868;11.680;2022-07-01T13:40:11;18.10;99.90
8539;DHT22;4307;53.868;11.680;2022-07-01T13:42:38;18.10;99.90
8539;DHT22;4307;53.868;11.680;2022-07-01T13:45:06;18.20;99.90
8539;DHT22;4307;53.868;11.680;2022-07-01T13:47:33;18.20;99.90
8539;DHT22;4307;53.868;11.680;2022-07-01T13:50:01;18.30;99.90
8539;DHT22;4307;53.868;11.680;2022-07-01T13:52:28;18.40;99.90
8539;DHT22;4307;53.868;11.680;2022-07-01T13:54:55;18.30;99.90
8539;DHT22;4307;53.868;11.680;2022-07-01T13:57:23;18.30;99.90
8539;DHT22;4307;53.868;11.680;2022-07-01T13:59:50;18.30;99.90
8539;DHT22;4307;53.868;11.680;2022-07-01T14:02:18;18.40;99.90
8539;DHT22;4307;53.868;11.680;2022-07-01T14:04:44;18.40;99.90
8539;DHT22;4307;53.868;11.680;2022-07-01T14:07:12;18.40;99.90
8539;DHT22;4307;53.868;11.680;2022-07-01T14:09:39;18.50;99.90
8539;DHT22;4307;53.868;11.680;2022-07-01T14:12:07;18.60;99.90
8539;DHT22;4307;53.868;11.680;2022-07-01T14:14:34;18.60;99.90
8539;DHT22;4307;53.868;11.680;2022-07-01T14:17:01;18.60;99.90
8539;DHT22;4307;53.868;11.680;2022-07-01T14:19:27;18.70;99.90
8539;DHT22;4307;53.868;11.680;2022-07-01T14:21:54;18.80;99.90
8539;DHT22;4307;53.868;11.680;2022-07-01T14:24:22;18.80;99.90
8539;DHT22;4307;53.868;11.680;2022-07-01T14:26:49;18.80;99.90
8539;DHT22;4307;53.868;11.680;2022-07-01T14:29:16;18.80;99.90
8539;DHT22;4307;53.868;11.680;2022-07-01T14:31:42;18.80;99.90
8539;DHT22;4307;53.868;11.680;2022-07-01T14:34:09;18.80;99.90
8539;DHT22;4307;53.868;11.680;2022-07-01T14:36:36;18.80;99.90
8539;DHT22;4307;53.868;11.680;2022-07-01T14:39:03;18.90;99.90
8539;DHT22;4307;53.868;11.680;2022-07-01T14:41:31;19.10;99.90
8539;DHT22;4307;53.868;11.680;2022-07-01T14:43:57;19.30;99.90
8539;DHT22;4307;53.868;11.680;2022-07-01T14:46:24;19.50;99.90
8539;DHT22;4307;53.868;11.680;2022-07-01T14:48:51;19.60;99.90
8539;DHT22;4307;53.868;11.680;2022-07-01T14:51:17;19.70;99.90
8539;DHT22;4307;53.868;11.680;2022-07-01T14:53:44;19.80;99.90
8539;DHT22;4307;53.868;11.680;2022-07-01T14:56:11;19.80;99.90
8539;DHT22;4307;53.868;11.680;2022-07-01T14:58:38;19.90;99.90
8539;DHT22;4307;53.868;11.680;2022-07-01T15:01:08;19.90;99.90
8539;DHT22;4307;53.868;11.680;2022-07-01T15:03:36;19.80;99.90
8539;DHT22;4307;53.868;11.680;2022-07-01T15:06:03;19.80;99.90
8539;DHT22;4307;53.868;11.680;2022-07-01T15:08:30;19.70;99.90
8539;DHT22;4307;53.868;11.680;2022-07-01T15:10:56;19.70;99.90
8539;DHT22;4307;53.868;11.680;2022-07-01T15:13:28;19.70;99.90
8539;DHT22;4307;53.868;11.680;2022-07-01T15:15:56;19.70;99.90
8539;DHT22;4307;53.868;11.680;2022-07-01T15:18:23;19.60;99.90
8539;DHT22;4307;53.868;11.680;2022-07-01T15:20:50;19.50;99.90
8539;DHT22;4307;53.868;11.680;2022-07-01T15:23:16;19.50;99.90
8539;DHT22;4307;53.868;11.680;2022-07-01T15:25:43;19.40;99.90
8539;DHT22;4307;53.868;11.680;2022-07-01T15:28:10;19.40;99.90
8539;DHT22;4307;53.868;11.680;2022-07-01T15:30:36;19.40;99.90
8539;DHT22;4307;53.868;11.680;2022-07-01T15:33:04;19.30;99.90
8539;DHT22;4307;53.868;11.680;2022-07-01T15:35:31;19.30;99.90
8539;DHT22;4307;53.868;11.680;2022-07-01T15:37:58;19.30;99.90
8539;DHT22;4307;53.868;11.680;2022-07-01T15:40:25;19.30;99.90
8539;DHT22;4307;53.868;11.680;2022-07-01T15:42:52;19.20;99.90
8539;DHT22;4307;53.868;11.680;2022-07-01T15:45:18;19.10;99.90
8539;DHT22;4307;53.868;11.680;2022-07-01T15:47:45;19.10;99.90
8539;DHT22;4307;53.868;11.680;2022-07-01T15:50:30;19.10;99.90
8539;DHT22;4307;53.868;11.680;2022-07-01T15:52:57;19.10;99.90